This is the latest recevied weather packets stored in our database for station/object XE2CT-20. If no packets are shown the sender has not sent any weather packets the latest 10 day(s).
| Time | Temp. | Humidity | Pressure | Rain* | Wind** | Luminosity | Snow |
|---|---|---|---|---|---|---|---|
| 1778019293 | 39.44° C | 29% | 993 hPa | - | - | - | - |
| 1778018392 | 37.78° C | 32% | 995 hPa | - | - | - | - |
| 1778017491 | 38.89° C | 30% | 994 hPa | - | - | - | - |
| 1778016590 | 36.11° C | 36% | 998 hPa | - | - | - | - |
| 1778015689 | 37.78° C | 34% | 996 hPa | - | - | - | - |
| 1778014787 | 37.22° C | 35% | 997 hPa | - | - | - | - |
| 1778013886 | 37.78° C | 34% | 997 hPa | - | - | - | - |
| 1778012985 | 36.67° C | 37% | 999 hPa | - | - | - | - |
| 1778012084 | 37.78° C | 35% | 997 hPa | - | - | - | - |
| 1778011183 | 36.67° C | 36% | 997 hPa | - | - | - | - |
| 1778010282 | 36.67° C | 38% | 998 hPa | - | - | - | - |
| 1778009381 | 35.56° C | 41% | 1000 hPa | - | - | - | - |
| 1778008479 | 35.56° C | 42% | 1001 hPa | - | - | - | - |
| 1778007578 | 35° C | 42% | 1001 hPa | - | - | - | - |
| 1778006677 | 34.44° C | 44% | 1003 hPa | - | - | - | - |
| 1778005776 | 34.44° C | 45% | 1003 hPa | - | - | - | - |
| 1778004875 | 33.89° C | 44% | 1003 hPa | - | - | - | - |
| 1778003974 | 34.44° C | 44% | 1003 hPa | - | - | - | - |
| 1778003073 | 33.33° C | 46% | 1004 hPa | - | - | - | - |
| 1778002172 | 33.33° C | 45% | 1004 hPa | - | - | - | - |
| 1778001271 | 32.78° C | 47% | 1005 hPa | - | - | - | - |
| 1778000370 | 32.78° C | 47% | 1005 hPa | - | - | - | - |
| 1777999469 | 32.78° C | 47% | 1005 hPa | - | - | - | - |
| 1777998568 | 32.22° C | 48% | 1005 hPa | - | - | - | - |
| 1777997667 | 31.67° C | 50% | 1006 hPa | - | - | - | - |
* Rain since midnight (hover to see other rain measurements)
** Current wind speed in m/s (hover to see current wind gust speed)